sensor_id;sensor_type;location;lat;lon;timestamp;P1;durP1;ratioP1;P2;durP2;ratioP2
34984;SDS011;21190;58.750;17.004;2023-06-14T00:02:03;5.38;;;2.60;;
34984;SDS011;21190;58.750;17.004;2023-06-14T00:04:31;4.10;;;2.28;;
34984;SDS011;21190;58.750;17.004;2023-06-14T00:06:58;11.02;;;2.58;;
34984;SDS011;21190;58.750;17.004;2023-06-14T00:09:25;4.65;;;2.60;;
34984;SDS011;21190;58.750;17.004;2023-06-14T00:11:53;3.70;;;2.40;;
34984;SDS011;21190;58.750;17.004;2023-06-14T00:14:20;4.90;;;2.15;;
34984;SDS011;21190;58.750;17.004;2023-06-14T00:16:47;4.72;;;2.53;;
34984;SDS011;21190;58.750;17.004;2023-06-14T00:19:14;3.50;;;2.47;;
34984;SDS011;21190;58.750;17.004;2023-06-14T00:21:42;6.70;;;2.45;;
34984;SDS011;21190;58.750;17.004;2023-06-14T00:24:10;3.33;;;2.58;;
34984;SDS011;21190;58.750;17.004;2023-06-14T00:26:37;4.53;;;2.70;;
34984;SDS011;21190;58.750;17.004;2023-06-14T00:29:04;4.80;;;2.58;;
34984;SDS011;21190;58.750;17.004;2023-06-14T00:31:31;6.18;;;2.60;;
34984;SDS011;21190;58.750;17.004;2023-06-14T00:33:58;3.50;;;2.33;;
34984;SDS011;21190;58.750;17.004;2023-06-14T00:36:25;3.40;;;2.22;;
34984;SDS011;21190;58.750;17.004;2023-06-14T00:38:52;3.65;;;2.10;;
34984;SDS011;21190;58.750;17.004;2023-06-14T00:41:19;5.75;;;2.75;;
34984;SDS011;21190;58.750;17.004;2023-06-14T00:43:46;10.60;;;2.63;;
34984;SDS011;21190;58.750;17.004;2023-06-14T00:46:13;3.15;;;2.42;;
34984;SDS011;21190;58.750;17.004;2023-06-14T00:48:40;4.07;;;2.45;;
34984;SDS011;21190;58.750;17.004;2023-06-14T00:51:07;5.28;;;2.20;;
34984;SDS011;21190;58.750;17.004;2023-06-14T00:53:34;6.10;;;2.95;;
34984;SDS011;21190;58.750;17.004;2023-06-14T00:56:02;7.68;;;3.03;;
34984;SDS011;21190;58.750;17.004;2023-06-14T00:58:29;8.65;;;2.80;;
34984;SDS011;21190;58.750;17.004;2023-06-14T01:00:57;5.82;;;2.50;;
34984;SDS011;21190;58.750;17.004;2023-06-14T01:03:24;6.28;;;2.72;;
34984;SDS011;21190;58.750;17.004;2023-06-14T01:05:53;7.53;;;2.63;;
34984;SDS011;21190;58.750;17.004;2023-06-14T01:08:31;5.45;;;2.65;;
34984;SDS011;21190;58.750;17.004;2023-06-14T01:11:07;6.28;;;2.90;;
34984;SDS011;21190;58.750;17.004;2023-06-14T01:13:43;5.03;;;2.42;;
34984;SDS011;21190;58.750;17.004;2023-06-14T01:16:12;5.85;;;2.83;;
34984;SDS011;21190;58.750;17.004;2023-06-14T01:18:40;6.53;;;2.50;;
34984;SDS011;21190;58.750;17.004;2023-06-14T01:21:19;4.55;;;2.47;;
34984;SDS011;21190;58.750;17.004;2023-06-14T01:23:51;6.47;;;2.88;;
34984;SDS011;21190;58.750;17.004;2023-06-14T01:26:22;8.18;;;2.50;;
34984;SDS011;21190;58.750;17.004;2023-06-14T01:28:49;7.18;;;2.95;;
34984;SDS011;21190;58.750;17.004;2023-06-14T01:31:19;4.72;;;2.65;;
34984;SDS011;21190;58.750;17.004;2023-06-14T01:33:50;10.25;;;2.65;;
34984;SDS011;21190;58.750;17.004;2023-06-14T01:36:18;10.32;;;2.92;;
34984;SDS011;21190;58.750;17.004;2023-06-14T01:38:47;8.30;;;2.45;;
34984;SDS011;21190;58.750;17.004;2023-06-14T01:41:17;11.45;;;2.78;;
34984;SDS011;21190;58.750;17.004;2023-06-14T01:43:46;4.93;;;2.42;;
34984;SDS011;21190;58.750;17.004;2023-06-14T01:46:15;7.45;;;2.60;;
34984;SDS011;21190;58.750;17.004;2023-06-14T01:48:42;6.75;;;2.28;;
34984;SDS011;21190;58.750;17.004;2023-06-14T01:51:10;2.78;;;2.38;;
34984;SDS011;21190;58.750;17.004;2023-06-14T01:53:37;6.18;;;3.20;;
34984;SDS011;21190;58.750;17.004;2023-06-14T01:56:04;3.97;;;2.72;;
34984;SDS011;21190;58.750;17.004;2023-06-14T01:58:31;4.47;;;2.17;;
34984;SDS011;21190;58.750;17.004;2023-06-14T02:00:59;3.67;;;2.05;;
34984;SDS011;21190;58.750;17.004;2023-06-14T02:03:27;3.67;;;2.22;;
34984;SDS011;21190;58.750;17.004;2023-06-14T02:05:54;3.75;;;2.20;;
34984;SDS011;21190;58.750;17.004;2023-06-14T02:08:22;5.85;;;2.80;;
34984;SDS011;21190;58.750;17.004;2023-06-14T02:10:49;3.85;;;2.75;;
34984;SDS011;21190;58.750;17.004;2023-06-14T02:13:17;6.07;;;2.40;;
34984;SDS011;21190;58.750;17.004;2023-06-14T02:15:44;7.95;;;2.45;;
34984;SDS011;21190;58.750;17.004;2023-06-14T02:18:11;5.40;;;2.67;;
34984;SDS011;21190;58.750;17.004;2023-06-14T02:20:38;3.47;;;2.55;;
34984;SDS011;21190;58.750;17.004;2023-06-14T02:23:05;3.75;;;2.38;;
34984;SDS011;21190;58.750;17.004;2023-06-14T02:25:34;6.80;;;2.78;;
34984;SDS011;21190;58.750;17.004;2023-06-14T02:28:01;3.55;;;2.63;;
34984;SDS011;21190;58.750;17.004;2023-06-14T02:30:28;8.18;;;2.58;;
34984;SDS011;21190;58.750;17.004;2023-06-14T02:32:55;3.28;;;2.47;;
34984;SDS011;21190;58.750;17.004;2023-06-14T02:35:23;3.17;;;2.30;;
34984;SDS011;21190;58.750;17.004;2023-06-14T02:37:53;13.18;;;2.80;;
34984;SDS011;21190;58.750;17.004;2023-06-14T02:40:20;10.05;;;2.72;;
34984;SDS011;21190;58.750;17.004;2023-06-14T02:42:47;5.75;;;2.67;;
34984;SDS011;21190;58.750;17.004;2023-06-14T02:45:14;12.52;;;2.67;;
34984;SDS011;21190;58.750;17.004;2023-06-14T02:47:41;6.53;;;3.00;;
34984;SDS011;21190;58.750;17.004;2023-06-14T02:50:08;8.00;;;3.00;;
34984;SDS011;21190;58.750;17.004;2023-06-14T02:52:36;6.75;;;2.83;;
34984;SDS011;21190;58.750;17.004;2023-06-14T02:55:03;8.93;;;3.00;;
34984;SDS011;21190;58.750;17.004;2023-06-14T02:57:31;5.20;;;2.72;;
34984;SDS011;21190;58.750;17.004;2023-06-14T02:59:57;10.65;;;3.35;;
34984;SDS011;21190;58.750;17.004;2023-06-14T03:02:24;5.95;;;3.15;;
34984;SDS011;21190;58.750;17.004;2023-06-14T03:04:51;5.47;;;3.05;;
34984;SDS011;21190;58.750;17.004;2023-06-14T03:07:18;3.72;;;3.08;;
34984;SDS011;21190;58.750;17.004;2023-06-14T03:09:48;4.90;;;3.17;;
34984;SDS011;21190;58.750;17.004;2023-06-14T03:12:16;7.38;;;3.20;;
34984;SDS011;21190;58.750;17.004;2023-06-14T03:14:42;4.40;;;3.13;;
34984;SDS011;21190;58.750;17.004;2023-06-14T03:17:13;6.53;;;3.10;;
34984;SDS011;21190;58.750;17.004;2023-06-14T03:19:40;5.25;;;3.03;;
34984;SDS011;21190;58.750;17.004;2023-06-14T03:22:07;5.72;;;3.20;;
34984;SDS011;21190;58.750;17.004;2023-06-14T03:24:34;5.22;;;3.47;;
34984;SDS011;21190;58.750;17.004;2023-06-14T03:27:03;11.07;;;3.83;;
34984;SDS011;21190;58.750;17.004;2023-06-14T03:29:31;8.23;;;4.55;;
34984;SDS011;21190;58.750;17.004;2023-06-14T03:31:58;10.15;;;3.88;;
34984;SDS011;21190;58.750;17.004;2023-06-14T03:34:26;13.80;;;4.10;;
34984;SDS011;21190;58.750;17.004;2023-06-14T03:36:54;7.97;;;3.25;;
34984;SDS011;21190;58.750;17.004;2023-06-14T03:39:21;12.20;;;4.07;;
34984;SDS011;21190;58.750;17.004;2023-06-14T03:41:48;9.82;;;3.38;;
34984;SDS011;21190;58.750;17.004;2023-06-14T03:44:15;4.63;;;3.60;;
34984;SDS011;21190;58.750;17.004;2023-06-14T03:46:44;9.13;;;3.20;;
34984;SDS011;21190;58.750;17.004;2023-06-14T03:49:12;7.20;;;3.10;;
34984;SDS011;21190;58.750;17.004;2023-06-14T03:51:40;6.65;;;3.53;;
34984;SDS011;21190;58.750;17.004;2023-06-14T03:54:07;6.45;;;3.30;;
34984;SDS011;21190;58.750;17.004;2023-06-14T03:56:37;12.45;;;3.47;;
34984;SDS011;21190;58.750;17.004;2023-06-14T03:59:04;8.77;;;3.65;;
34984;SDS011;21190;58.750;17.004;2023-06-14T04:01:31;8.73;;;3.20;;
34984;SDS011;21190;58.750;17.004;2023-06-14T04:04:00;11.68;;;3.45;;
34984;SDS011;21190;58.750;17.004;2023-06-14T04:06:27;3.97;;;2.88;;
34984;SDS011;21190;58.750;17.004;2023-06-14T04:08:59;9.25;;;3.30;;
34984;SDS011;21190;58.750;17.004;2023-06-14T04:11:30;3.95;;;3.00;;
34984;SDS011;21190;58.750;17.004;2023-06-14T04:13:58;5.55;;;2.95;;
34984;SDS011;21190;58.750;17.004;2023-06-14T04:16:25;10.50;;;3.35;;
34984;SDS011;21190;58.750;17.004;2023-06-14T04:18:54;9.90;;;2.88;;
34984;SDS011;21190;58.750;17.004;2023-06-14T04:21:21;7.85;;;3.67;;
34984;SDS011;21190;58.750;17.004;2023-06-14T04:23:49;8.63;;;3.92;;
34984;SDS011;21190;58.750;17.004;2023-06-14T04:26:19;6.63;;;3.10;;
34984;SDS011;21190;58.750;17.004;2023-06-14T04:28:50;6.63;;;3.58;;
34984;SDS011;21190;58.750;17.004;2023-06-14T04:31:17;7.80;;;3.10;;
34984;SDS011;21190;58.750;17.004;2023-06-14T04:33:44;5.85;;;3.17;;
34984;SDS011;21190;58.750;17.004;2023-06-14T04:36:13;8.50;;;3.60;;
34984;SDS011;21190;58.750;17.004;2023-06-14T04:38:44;5.93;;;3.42;;
34984;SDS011;21190;58.750;17.004;2023-06-14T04:41:12;6.40;;;3.70;;
34984;SDS011;21190;58.750;17.004;2023-06-14T04:43:39;4.95;;;3.65;;
34984;SDS011;21190;58.750;17.004;2023-06-14T04:46:06;5.72;;;4.15;;
34984;SDS011;21190;58.750;17.004;2023-06-14T04:48:37;4.57;;;3.42;;
34984;SDS011;21190;58.750;17.004;2023-06-14T04:51:07;6.55;;;3.28;;
34984;SDS011;21190;58.750;17.004;2023-06-14T04:53:35;9.50;;;3.83;;
34984;SDS011;21190;58.750;17.004;2023-06-14T04:56:03;5.10;;;3.03;;
34984;SDS011;21190;58.750;17.004;2023-06-14T04:58:30;5.63;;;3.40;;
34984;SDS011;21190;58.750;17.004;2023-06-14T05:00:58;9.88;;;3.10;;
34984;SDS011;21190;58.750;17.004;2023-06-14T05:03:26;7.63;;;3.25;;
34984;SDS011;21190;58.750;17.004;2023-06-14T05:05:54;5.35;;;2.90;;
34984;SDS011;21190;58.750;17.004;2023-06-14T05:08:21;13.10;;;3.47;;
34984;SDS011;21190;58.750;17.004;2023-06-14T05:10:52;9.38;;;3.20;;
34984;SDS011;21190;58.750;17.004;2023-06-14T05:13:19;9.73;;;3.65;;
34984;SDS011;21190;58.750;17.004;2023-06-14T05:15:48;11.15;;;3.20;;
34984;SDS011;21190;58.750;17.004;2023-06-14T05:18:15;6.85;;;3.38;;
34984;SDS011;21190;58.750;17.004;2023-06-14T05:20:42;7.50;;;3.50;;
34984;SDS011;21190;58.750;17.004;2023-06-14T05:23:09;17.08;;;3.28;;
34984;SDS011;21190;58.750;17.004;2023-06-14T05:25:45;6.15;;;3.25;;
34984;SDS011;21190;58.750;17.004;2023-06-14T05:28:12;7.85;;;3.10;;
34984;SDS011;21190;58.750;17.004;2023-06-14T05:30:39;7.55;;;3.58;;
34984;SDS011;21190;58.750;17.004;2023-06-14T05:33:06;7.68;;;3.30;;
34984;SDS011;21190;58.750;17.004;2023-06-14T05:35:34;5.55;;;2.65;;
34984;SDS011;21190;58.750;17.004;2023-06-14T05:38:01;6.82;;;3.00;;
34984;SDS011;21190;58.750;17.004;2023-06-14T05:40:28;7.88;;;3.08;;
34984;SDS011;21190;58.750;17.004;2023-06-14T05:42:55;3.88;;;2.90;;
34984;SDS011;21190;58.750;17.004;2023-06-14T05:45:22;9.00;;;3.30;;
34984;SDS011;21190;58.750;17.004;2023-06-14T05:47:49;5.80;;;3.20;;
34984;SDS011;21190;58.750;17.004;2023-06-14T05:50:16;8.23;;;3.20;;
34984;SDS011;21190;58.750;17.004;2023-06-14T05:52:46;8.77;;;2.90;;
34984;SDS011;21190;58.750;17.004;2023-06-14T05:55:16;4.18;;;2.92;;
34984;SDS011;21190;58.750;17.004;2023-06-14T05:57:44;4.55;;;3.22;;
34984;SDS011;21190;58.750;17.004;2023-06-14T06:00:11;13.23;;;3.40;;
34984;SDS011;21190;58.750;17.004;2023-06-14T06:02:43;6.03;;;3.30;;
34984;SDS011;21190;58.750;17.004;2023-06-14T06:05:11;8.07;;;3.40;;
34984;SDS011;21190;58.750;17.004;2023-06-14T06:07:39;7.90;;;3.42;;
34984;SDS011;21190;58.750;17.004;2023-06-14T06:10:07;5.40;;;3.20;;
34984;SDS011;21190;58.750;17.004;2023-06-14T06:12:34;9.60;;;3.10;;
34984;SDS011;21190;58.750;17.004;2023-06-14T06:15:01;11.20;;;3.15;;
34984;SDS011;21190;58.750;17.004;2023-06-14T06:17:29;8.10;;;3.53;;
34984;SDS011;21190;58.750;17.004;2023-06-14T06:20:11;8.48;;;3.28;;
34984;SDS011;21190;58.750;17.004;2023-06-14T06:22:38;10.13;;;3.10;;
34984;SDS011;21190;58.750;17.004;2023-06-14T06:25:05;6.93;;;3.22;;
34984;SDS011;21190;58.750;17.004;2023-06-14T06:27:33;5.03;;;2.92;;
34984;SDS011;21190;58.750;17.004;2023-06-14T06:30:02;5.20;;;3.17;;
34984;SDS011;21190;58.750;17.004;2023-06-14T06:32:29;9.10;;;2.95;;
34984;SDS011;21190;58.750;17.004;2023-06-14T06:34:56;7.68;;;2.83;;
34984;SDS011;21190;58.750;17.004;2023-06-14T06:37:23;6.80;;;3.10;;
34984;SDS011;21190;58.750;17.004;2023-06-14T06:39:50;13.60;;;3.22;;
34984;SDS011;21190;58.750;17.004;2023-06-14T06:42:17;6.88;;;2.85;;
34984;SDS011;21190;58.750;17.004;2023-06-14T06:44:44;11.27;;;3.00;;
34984;SDS011;21190;58.750;17.004;2023-06-14T06:47:11;10.55;;;3.85;;
34984;SDS011;21190;58.750;17.004;2023-06-14T06:49:38;9.68;;;3.35;;
34984;SDS011;21190;58.750;17.004;2023-06-14T06:52:06;6.55;;;3.00;;
34984;SDS011;21190;58.750;17.004;2023-06-14T06:54:33;6.05;;;3.08;;
34984;SDS011;21190;58.750;17.004;2023-06-14T06:57:01;8.32;;;2.75;;
34984;SDS011;21190;58.750;17.004;2023-06-14T06:59:28;9.63;;;3.13;;
34984;SDS011;21190;58.750;17.004;2023-06-14T07:01:55;6.93;;;3.42;;
34984;SDS011;21190;58.750;17.004;2023-06-14T07:04:22;7.28;;;3.35;;
34984;SDS011;21190;58.750;17.004;2023-06-14T07:06:49;5.90;;;3.33;;
34984;SDS011;21190;58.750;17.004;2023-06-14T07:09:16;5.97;;;2.83;;
34984;SDS011;21190;58.750;17.004;2023-06-14T07:11:43;6.35;;;3.13;;
34984;SDS011;21190;58.750;17.004;2023-06-14T07:14:10;8.38;;;3.63;;
34984;SDS011;21190;58.750;17.004;2023-06-14T07:16:38;6.05;;;3.60;;
34984;SDS011;21190;58.750;17.004;2023-06-14T07:19:05;6.95;;;3.20;;
34984;SDS011;21190;58.750;17.004;2023-06-14T07:21:32;9.45;;;3.30;;
34984;SDS011;21190;58.750;17.004;2023-06-14T07:23:59;5.68;;;3.08;;
34984;SDS011;21190;58.750;17.004;2023-06-14T07:26:26;6.80;;;2.67;;
34984;SDS011;21190;58.750;17.004;2023-06-14T07:28:53;3.58;;;2.35;;
34984;SDS011;21190;58.750;17.004;2023-06-14T07:31:20;19.42;;;3.70;;
34984;SDS011;21190;58.750;17.004;2023-06-14T07:33:47;6.38;;;2.58;;
34984;SDS011;21190;58.750;17.004;2023-06-14T07:36:14;9.98;;;2.95;;
34984;SDS011;21190;58.750;17.004;2023-06-14T07:38:41;6.03;;;2.78;;
34984;SDS011;21190;58.750;17.004;2023-06-14T07:41:08;6.93;;;2.45;;
34984;SDS011;21190;58.750;17.004;2023-06-14T07:43:35;6.75;;;2.63;;
34984;SDS011;21190;58.750;17.004;2023-06-14T07:46:04;6.47;;;2.25;;
34984;SDS011;21190;58.750;17.004;2023-06-14T07:48:33;6.30;;;2.30;;
34984;SDS011;21190;58.750;17.004;2023-06-14T07:51:01;7.15;;;2.60;;
34984;SDS011;21190;58.750;17.004;2023-06-14T07:53:28;8.43;;;2.53;;
34984;SDS011;21190;58.750;17.004;2023-06-14T07:55:57;7.18;;;2.42;;
34984;SDS011;21190;58.750;17.004;2023-06-14T07:58:24;3.38;;;2.30;;
34984;SDS011;21190;58.750;17.004;2023-06-14T08:00:51;7.80;;;2.40;;
34984;SDS011;21190;58.750;17.004;2023-06-14T08:03:18;7.18;;;2.65;;
34984;SDS011;21190;58.750;17.004;2023-06-14T08:05:46;7.40;;;2.83;;
34984;SDS011;21190;58.750;17.004;2023-06-14T08:08:13;4.20;;;2.28;;
34984;SDS011;21190;58.750;17.004;2023-06-14T08:10:40;8.52;;;2.15;;
34984;SDS011;21190;58.750;17.004;2023-06-14T08:13:08;4.93;;;2.20;;
34984;SDS011;21190;58.750;17.004;2023-06-14T08:15:36;9.32;;;2.95;;
34984;SDS011;21190;58.750;17.004;2023-06-14T08:18:03;4.47;;;1.92;;
34984;SDS011;21190;58.750;17.004;2023-06-14T08:20:30;5.22;;;2.20;;
34984;SDS011;21190;58.750;17.004;2023-06-14T08:22:57;6.75;;;1.80;;
34984;SDS011;21190;58.750;17.004;2023-06-14T08:25:24;2.58;;;2.00;;
34984;SDS011;21190;58.750;17.004;2023-06-14T08:27:52;5.68;;;2.25;;
34984;SDS011;21190;58.750;17.004;2023-06-14T08:30:19;4.00;;;2.33;;
34984;SDS011;21190;58.750;17.004;2023-06-14T08:32:46;5.53;;;2.20;;
34984;SDS011;21190;58.750;17.004;2023-06-14T08:35:18;3.42;;;2.13;;
34984;SDS011;21190;58.750;17.004;2023-06-14T08:37:46;5.82;;;2.30;;
34984;SDS011;21190;58.750;17.004;2023-06-14T08:40:20;5.60;;;2.25;;
34984;SDS011;21190;58.750;17.004;2023-06-14T08:42:52;5.55;;;2.70;;
34984;SDS011;21190;58.750;17.004;2023-06-14T08:45:20;6.18;;;2.75;;
34984;SDS011;21190;58.750;17.004;2023-06-14T08:47:52;4.90;;;2.00;;
34984;SDS011;21190;58.750;17.004;2023-06-14T08:50:25;4.30;;;2.50;;
34984;SDS011;21190;58.750;17.004;2023-06-14T08:52:56;2.83;;;2.20;;
34984;SDS011;21190;58.750;17.004;2023-06-14T08:55:27;6.10;;;2.40;;
34984;SDS011;21190;58.750;17.004;2023-06-14T08:57:57;5.55;;;2.53;;
34984;SDS011;21190;58.750;17.004;2023-06-14T09:00:24;3.38;;;2.47;;
34984;SDS011;21190;58.750;17.004;2023-06-14T09:02:53;6.53;;;2.78;;
34984;SDS011;21190;58.750;17.004;2023-06-14T09:05:26;12.85;;;2.92;;
34984;SDS011;21190;58.750;17.004;2023-06-14T09:07:53;6.90;;;2.13;;
34984;SDS011;21190;58.750;17.004;2023-06-14T09:10:22;4.00;;;2.35;;
34984;SDS011;21190;58.750;17.004;2023-06-14T09:12:53;7.60;;;2.25;;
34984;SDS011;21190;58.750;17.004;2023-06-14T09:15:20;6.88;;;2.30;;
34984;SDS011;21190;58.750;17.004;2023-06-14T09:17:47;8.90;;;2.63;;
34984;SDS011;21190;58.750;17.004;2023-06-14T09:20:14;5.25;;;2.20;;
34984;SDS011;21190;58.750;17.004;2023-06-14T09:22:46;4.80;;;2.55;;
34984;SDS011;21190;58.750;17.004;2023-06-14T09:25:13;3.70;;;2.35;;
34984;SDS011;21190;58.750;17.004;2023-06-14T09:28:01;7.07;;;1.95;;
34984;SDS011;21190;58.750;17.004;2023-06-14T09:30:28;4.85;;;2.20;;
34984;SDS011;21190;58.750;17.004;2023-06-14T09:32:55;6.07;;;2.50;;
34984;SDS011;21190;58.750;17.004;2023-06-14T09:35:26;4.15;;;2.22;;
34984;SDS011;21190;58.750;17.004;2023-06-14T09:37:56;4.97;;;2.10;;
34984;SDS011;21190;58.750;17.004;2023-06-14T09:40:23;6.95;;;2.20;;
34984;SDS011;21190;58.750;17.004;2023-06-14T09:42:50;4.78;;;1.88;;
34984;SDS011;21190;58.750;17.004;2023-06-14T09:45:20;2.95;;;2.25;;
34984;SDS011;21190;58.750;17.004;2023-06-14T09:47:49;4.07;;;2.67;;
34984;SDS011;21190;58.750;17.004;2023-06-14T09:50:31;4.75;;;2.40;;
34984;SDS011;21190;58.750;17.004;2023-06-14T09:52:59;7.53;;;2.40;;
34984;SDS011;21190;58.750;17.004;2023-06-14T09:55:34;4.35;;;2.20;;
34984;SDS011;21190;58.750;17.004;2023-06-14T09:58:04;6.28;;;2.40;;
34984;SDS011;21190;58.750;17.004;2023-06-14T10:00:34;4.22;;;2.30;;
34984;SDS011;21190;58.750;17.004;2023-06-14T10:03:05;7.85;;;2.38;;
34984;SDS011;21190;58.750;17.004;2023-06-14T10:05:38;6.32;;;2.35;;
34984;SDS011;21190;58.750;17.004;2023-06-14T10:08:10;7.43;;;2.30;;
34984;SDS011;21190;58.750;17.004;2023-06-14T10:10:42;3.53;;;2.53;;
34984;SDS011;21190;58.750;17.004;2023-06-14T10:13:11;8.55;;;2.55;;
34984;SDS011;21190;58.750;17.004;2023-06-14T10:24:05;13.90;;;2.88;;
34984;SDS011;21190;58.750;17.004;2023-06-14T10:26:35;8.55;;;3.33;;
34984;SDS011;21190;58.750;17.004;2023-06-14T10:29:08;9.10;;;2.90;;
34984;SDS011;21190;58.750;17.004;2023-06-14T10:34:10;8.98;;;2.97;;
34984;SDS011;21190;58.750;17.004;2023-06-14T10:36:38;3.78;;;2.40;;
34984;SDS011;21190;58.750;17.004;2023-06-14T10:39:14;6.88;;;2.65;;
34984;SDS011;21190;58.750;17.004;2023-06-14T10:41:53;3.80;;;2.72;;
34984;SDS011;21190;58.750;17.004;2023-06-14T10:46:58;8.48;;;2.60;;
34984;SDS011;21190;58.750;17.004;2023-06-14T10:49:39;11.25;;;2.78;;
34984;SDS011;21190;58.750;17.004;2023-06-14T10:52:14;14.73;;;3.45;;
34984;SDS011;21190;58.750;17.004;2023-06-14T10:57:38;8.73;;;2.80;;
34984;SDS011;21190;58.750;17.004;2023-06-14T11:00:10;6.85;;;2.60;;
34984;SDS011;21190;58.750;17.004;2023-06-14T11:02:51;5.30;;;2.63;;
34984;SDS011;21190;58.750;17.004;2023-06-14T11:05:56;5.75;;;2.53;;
34984;SDS011;21190;58.750;17.004;2023-06-14T11:11:07;4.05;;;2.58;;
34984;SDS011;21190;58.750;17.004;2023-06-14T11:13:39;7.07;;;2.67;;
34984;SDS011;21190;58.750;17.004;2023-06-14T11:16:12;4.63;;;2.70;;
34984;SDS011;21190;58.750;17.004;2023-06-14T11:18:40;5.32;;;2.45;;
34984;SDS011;21190;58.750;17.004;2023-06-14T11:21:08;5.43;;;2.22;;
34984;SDS011;21190;58.750;17.004;2023-06-14T11:23:35;4.97;;;2.80;;
34984;SDS011;21190;58.750;17.004;2023-06-14T11:26:03;8.48;;;2.15;;
34984;SDS011;21190;58.750;17.004;2023-06-14T11:28:38;3.30;;;2.22;;
34984;SDS011;21190;58.750;17.004;2023-06-14T11:31:07;5.15;;;2.30;;
34984;SDS011;21190;58.750;17.004;2023-06-14T11:33:35;5.82;;;2.67;;
34984;SDS011;21190;58.750;17.004;2023-06-14T11:36:03;4.68;;;2.15;;
34984;SDS011;21190;58.750;17.004;2023-06-14T11:38:39;4.32;;;2.42;;
34984;SDS011;21190;58.750;17.004;2023-06-14T11:41:06;7.38;;;2.10;;
34984;SDS011;21190;58.750;17.004;2023-06-14T11:43:34;8.30;;;2.33;;
34984;SDS011;21190;58.750;17.004;2023-06-14T11:46:02;4.60;;;2.40;;
34984;SDS011;21190;58.750;17.004;2023-06-14T11:48:37;4.18;;;2.25;;
34984;SDS011;21190;58.750;17.004;2023-06-14T11:51:06;4.05;;;2.08;;
34984;SDS011;21190;58.750;17.004;2023-06-14T11:53:33;11.32;;;2.42;;
34984;SDS011;21190;58.750;17.004;2023-06-14T11:56:00;6.45;;;2.50;;
34984;SDS011;21190;58.750;17.004;2023-06-14T11:58:29;4.05;;;2.33;;
34984;SDS011;21190;58.750;17.004;2023-06-14T12:00:56;5.68;;;2.20;;
34984;SDS011;21190;58.750;17.004;2023-06-14T12:03:24;5.72;;;2.35;;
34984;SDS011;21190;58.750;17.004;2023-06-14T12:06:07;4.93;;;2.22;;
34984;SDS011;21190;58.750;17.004;2023-06-14T12:08:35;6.07;;;2.17;;
34984;SDS011;21190;58.750;17.004;2023-06-14T12:11:10;7.07;;;2.08;;
34984;SDS011;21190;58.750;17.004;2023-06-14T12:13:39;4.68;;;2.88;;
34984;SDS011;21190;58.750;17.004;2023-06-14T12:16:10;3.67;;;2.33;;
34984;SDS011;21190;58.750;17.004;2023-06-14T12:18:39;7.30;;;2.63;;
34984;SDS011;21190;58.750;17.004;2023-06-14T12:21:07;5.78;;;2.30;;
34984;SDS011;21190;58.750;17.004;2023-06-14T12:23:41;4.28;;;2.20;;
34984;SDS011;21190;58.750;17.004;2023-06-14T12:26:09;5.93;;;2.58;;
34984;SDS011;21190;58.750;17.004;2023-06-14T12:28:39;8.73;;;2.75;;
34984;SDS011;21190;58.750;17.004;2023-06-14T12:31:08;6.22;;;2.67;;
34984;SDS011;21190;58.750;17.004;2023-06-14T12:33:38;5.03;;;1.85;;
34984;SDS011;21190;58.750;17.004;2023-06-14T12:36:06;4.28;;;2.15;;
34984;SDS011;21190;58.750;17.004;2023-06-14T12:38:34;4.10;;;2.00;;
34984;SDS011;21190;58.750;17.004;2023-06-14T12:41:01;2.30;;;2.10;;
34984;SDS011;21190;58.750;17.004;2023-06-14T12:43:29;4.47;;;2.13;;
34984;SDS011;21190;58.750;17.004;2023-06-14T12:45:56;8.38;;;2.38;;
34984;SDS011;21190;58.750;17.004;2023-06-14T12:48:23;5.65;;;2.28;;
34984;SDS011;21190;58.750;17.004;2023-06-14T12:50:50;7.03;;;2.30;;
34984;SDS011;21190;58.750;17.004;2023-06-14T12:53:17;3.47;;;2.10;;
34984;SDS011;21190;58.750;17.004;2023-06-14T12:55:44;5.70;;;2.03;;
34984;SDS011;21190;58.750;17.004;2023-06-14T12:58:11;11.70;;;2.70;;
34984;SDS011;21190;58.750;17.004;2023-06-14T13:00:39;6.28;;;2.28;;
34984;SDS011;21190;58.750;17.004;2023-06-14T13:03:06;4.88;;;2.38;;
34984;SDS011;21190;58.750;17.004;2023-06-14T13:05:33;3.92;;;2.25;;
34984;SDS011;21190;58.750;17.004;2023-06-14T13:08:00;2.72;;;1.90;;
34984;SDS011;21190;58.750;17.004;2023-06-14T13:10:27;2.50;;;2.20;;
34984;SDS011;21190;58.750;17.004;2023-06-14T13:12:54;3.67;;;2.17;;
34984;SDS011;21190;58.750;17.004;2023-06-14T13:15:24;3.58;;;1.55;;
34984;SDS011;21190;58.750;17.004;2023-06-14T13:17:51;5.63;;;1.83;;
34984;SDS011;21190;58.750;17.004;2023-06-14T13:20:18;4.63;;;2.08;;
34984;SDS011;21190;58.750;17.004;2023-06-14T13:22:46;3.10;;;1.85;;
34984;SDS011;21190;58.750;17.004;2023-06-14T13:25:13;4.80;;;2.00;;
34984;SDS011;21190;58.750;17.004;2023-06-14T13:27:40;4.18;;;1.65;;
34984;SDS011;21190;58.750;17.004;2023-06-14T13:30:07;3.72;;;1.98;;
34984;SDS011;21190;58.750;17.004;2023-06-14T13:32:35;3.70;;;1.75;;
34984;SDS011;21190;58.750;17.004;2023-06-14T13:35:03;6.32;;;2.22;;
34984;SDS011;21190;58.750;17.004;2023-06-14T13:37:30;6.43;;;2.10;;
34984;SDS011;21190;58.750;17.004;2023-06-14T13:39:57;7.97;;;2.13;;
34984;SDS011;21190;58.750;17.004;2023-06-14T13:42:24;6.45;;;2.05;;
34984;SDS011;21190;58.750;17.004;2023-06-14T13:44:51;4.95;;;1.95;;
34984;SDS011;21190;58.750;17.004;2023-06-14T13:47:19;6.85;;;2.08;;
34984;SDS011;21190;58.750;17.004;2023-06-14T13:49:46;8.40;;;2.78;;
34984;SDS011;21190;58.750;17.004;2023-06-14T13:52:13;5.30;;;2.10;;
34984;SDS011;21190;58.750;17.004;2023-06-14T13:54:40;8.95;;;2.83;;
34984;SDS011;21190;58.750;17.004;2023-06-14T13:57:08;6.88;;;2.13;;
34984;SDS011;21190;58.750;17.004;2023-06-14T13:59:39;5.60;;;2.40;;
34984;SDS011;21190;58.750;17.004;2023-06-14T14:02:07;4.72;;;2.15;;
34984;SDS011;21190;58.750;17.004;2023-06-14T14:04:34;7.43;;;2.10;;
34984;SDS011;21190;58.750;17.004;2023-06-14T14:07:04;8.00;;;2.50;;
34984;SDS011;21190;58.750;17.004;2023-06-14T14:09:32;4.70;;;1.90;;
34984;SDS011;21190;58.750;17.004;2023-06-14T14:12:01;7.35;;;2.17;;
34984;SDS011;21190;58.750;17.004;2023-06-14T14:14:29;5.75;;;2.45;;
34984;SDS011;21190;58.750;17.004;2023-06-14T14:16:58;8.65;;;2.30;;
34984;SDS011;21190;58.750;17.004;2023-06-14T14:19:25;3.33;;;2.15;;
34984;SDS011;21190;58.750;17.004;2023-06-14T14:21:52;9.40;;;2.42;;
34984;SDS011;21190;58.750;17.004;2023-06-14T14:24:22;5.78;;;2.28;;
34984;SDS011;21190;58.750;17.004;2023-06-14T14:26:49;5.72;;;2.55;;
34984;SDS011;21190;58.750;17.004;2023-06-14T14:29:19;5.70;;;2.17;;
34984;SDS011;21190;58.750;17.004;2023-06-14T14:31:46;8.27;;;2.63;;
34984;SDS011;21190;58.750;17.004;2023-06-14T14:34:14;7.40;;;2.70;;
34984;SDS011;21190;58.750;17.004;2023-06-14T14:36:41;9.63;;;2.35;;
34984;SDS011;21190;58.750;17.004;2023-06-14T14:39:09;3.53;;;1.85;;
34984;SDS011;21190;58.750;17.004;2023-06-14T14:41:36;6.60;;;2.47;;
34984;SDS011;21190;58.750;17.004;2023-06-14T14:44:07;5.43;;;1.90;;
34984;SDS011;21190;58.750;17.004;2023-06-14T14:46:34;7.93;;;2.28;;
34984;SDS011;21190;58.750;17.004;2023-06-14T14:49:02;3.80;;;2.08;;
34984;SDS011;21190;58.750;17.004;2023-06-14T14:51:29;4.38;;;2.42;;
34984;SDS011;21190;58.750;17.004;2023-06-14T14:53:56;4.72;;;2.03;;
34984;SDS011;21190;58.750;17.004;2023-06-14T14:56:23;3.58;;;2.10;;
34984;SDS011;21190;58.750;17.004;2023-06-14T14:58:50;4.75;;;2.00;;
34984;SDS011;21190;58.750;17.004;2023-06-14T15:01:18;5.35;;;1.67;;